createdAt,value
2017-10-02T00:00:52.951Z,83.20
2017-10-02T00:03:21.342Z,82.80
2017-10-02T00:05:48.910Z,82.80
2017-10-02T00:08:16.478Z,82.50
2017-10-02T00:10:44.115Z,82.30
2017-10-02T00:13:11.692Z,82.50
2017-10-02T00:15:39.272Z,82.20
2017-10-02T00:18:07.246Z,82.30
2017-10-02T00:20:35.445Z,82.20
2017-10-02T00:23:03.784Z,82.10
2017-10-02T00:25:31.415Z,82.00
2017-10-02T00:27:58.990Z,81.90
2017-10-02T00:30:27.335Z,81.60
2017-10-02T00:32:55.067Z,81.60
2017-10-02T00:35:22.642Z,81.50
2017-10-02T00:37:50.979Z,81.70
2017-10-02T00:40:18.750Z,81.70
2017-10-02T00:42:47.094Z,81.10
2017-10-02T00:45:14.677Z,81.10
2017-10-02T00:47:42.304Z,80.90
2017-10-02T00:50:10.643Z,80.80
2017-10-02T00:52:38.215Z,80.70
2017-10-02T00:55:06.600Z,80.60
2017-10-02T00:57:34.169Z,80.50
2017-10-02T01:00:01.827Z,80.30
2017-10-02T01:02:29.616Z,80.40
2017-10-02T01:04:58.061Z,80.00
2017-10-02T01:07:25.633Z,80.00
2017-10-02T01:09:53.249Z,80.70
2017-10-02T01:12:20.840Z,79.90
2017-10-02T01:14:48.419Z,80.00
2017-10-02T01:17:16.149Z,80.40
2017-10-02T01:19:43.726Z,80.40
2017-10-02T01:22:11.304Z,80.70
2017-10-02T01:24:39.032Z,81.50
2017-10-02T01:27:07.366Z,80.50
2017-10-02T01:29:35.710Z,80.40
2017-10-02T01:32:03.337Z,80.40
2017-10-02T01:34:30.909Z,80.20
2017-10-02T01:36:58.478Z,80.30
2017-10-02T01:39:26.866Z,79.90
2017-10-02T01:41:54.446Z,79.90
2017-10-02T01:44:22.014Z,80.00
2017-10-02T01:46:49.791Z,79.80
2017-10-02T01:49:18.218Z,79.40
2017-10-02T01:51:45.787Z,79.30
2017-10-02T01:54:14.428Z,78.90
2017-10-02T01:56:42.072Z,78.90
2017-10-02T01:59:09.654Z,78.70
2017-10-02T02:01:38.102Z,78.70
2017-10-02T02:04:05.678Z,78.70
2017-10-02T02:06:33.269Z,78.40
2017-10-02T02:09:00.987Z,78.90
2017-10-02T02:11:28.558Z,79.00
2017-10-02T02:13:56.126Z,78.90
2017-10-02T02:16:23.742Z,78.50
2017-10-02T02:18:51.318Z,78.50
2017-10-02T02:21:19.654Z,78.20
2017-10-02T02:23:47.291Z,78.10
2017-10-02T02:26:14.857Z,77.90
2017-10-02T02:28:42.426Z,78.20
2017-10-02T02:31:10.950Z,78.40
2017-10-02T02:33:38.605Z,78.40
2017-10-02T02:36:06.177Z,78.50
2017-10-02T02:38:34.566Z,78.60
2017-10-02T02:41:02.143Z,78.10
2017-10-02T02:43:29.718Z,78.40
2017-10-02T02:45:58.241Z,78.50
2017-10-02T02:48:25.810Z,78.40
2017-10-02T02:50:53.390Z,78.10
2017-10-02T02:53:21.010Z,78.10
2017-10-02T02:55:48.583Z,78.10
2017-10-02T02:58:16.158Z,78.00
2017-10-02T03:00:43.873Z,78.20
2017-10-02T03:03:11.447Z,78.10
2017-10-02T03:05:39.024Z,78.10
2017-10-02T03:08:06.658Z,78.20
2017-10-02T03:10:35.487Z,78.20
2017-10-02T03:13:03.059Z,78.20
2017-10-02T03:15:30.698Z,78.20
2017-10-02T03:17:58.275Z,78.20
2017-10-02T03:20:25.857Z,78.00
2017-10-02T03:22:53.594Z,78.10
2017-10-02T03:25:21.940Z,77.90
2017-10-02T03:27:50.286Z,78.20
2017-10-02T03:30:17.915Z,78.20
2017-10-02T03:32:45.989Z,78.20
2017-10-02T03:35:13.595Z,78.50
2017-10-02T03:37:41.213Z,79.00
2017-10-02T03:40:10.892Z,78.90
2017-10-02T03:42:39.437Z,79.00
2017-10-02T03:45:07.051Z,78.80
2017-10-02T03:47:34.619Z,79.50
2017-10-02T03:50:02.187Z,79.90
2017-10-02T03:52:30.582Z,80.80
2017-10-02T03:54:58.934Z,80.70
2017-10-02T03:57:26.513Z,81.00
2017-10-02T03:59:54.130Z,81.90
2017-10-02T04:02:21.706Z,82.90
2017-10-02T04:04:49.278Z,83.20
2017-10-02T04:07:16.904Z,83.90
2017-10-02T04:09:44.478Z,84.80
2017-10-02T04:12:12.819Z,86.00
2017-10-02T04:14:40.439Z,85.90
2017-10-02T04:17:08.026Z,85.80
2017-10-02T04:19:35.603Z,86.90
2017-10-02T04:22:03.233Z,87.70
2017-10-02T04:24:30.802Z,88.00
2017-10-02T04:26:58.378Z,89.00
2017-10-02T04:29:26.123Z,87.80
2017-10-02T04:31:53.822Z,88.40
2017-10-02T04:34:21.522Z,89.00
2017-10-02T04:36:49.310Z,89.60
2017-10-02T04:39:16.879Z,89.00
2017-10-02T04:41:44.450Z,89.50
2017-10-02T04:44:12.062Z,89.90
2017-10-02T04:46:39.766Z,89.90
2017-10-02T04:49:07.353Z,90.10
2017-10-02T04:51:35.079Z,90.40
2017-10-02T04:54:02.735Z,90.10
2017-10-02T04:56:30.429Z,90.40
2017-10-02T04:58:58.838Z,90.90
2017-10-02T05:01:26.419Z,90.90
2017-10-02T05:03:53.986Z,91.00
2017-10-02T05:06:22.477Z,91.10
2017-10-02T05:08:50.818Z,91.00
2017-10-02T05:11:18.397Z,91.00
2017-10-02T05:13:46.151Z,91.20
2017-10-02T05:16:13.727Z,90.90
2017-10-02T05:18:41.311Z,91.50
2017-10-02T05:21:09.747Z,91.50
2017-10-02T05:23:37.322Z,91.50
2017-10-02T05:26:05.658Z,91.90
2017-10-02T05:28:33.438Z,91.80
2017-10-02T05:31:01.766Z,92.00
2017-10-02T05:33:29.338Z,91.90
2017-10-02T05:35:57.728Z,91.80
2017-10-02T05:38:25.305Z,91.80
2017-10-02T05:40:52.874Z,92.10
2017-10-02T05:43:20.501Z,92.20
2017-10-02T05:45:48.078Z,92.30
2017-10-02T05:48:16.414Z,92.50
2017-10-02T05:50:44.190Z,92.40
2017-10-02T05:53:12.533Z,92.60
2017-10-02T05:55:40.163Z,92.60
2017-10-02T05:58:07.951Z,92.70
2017-10-02T06:00:36.303Z,92.70
2017-10-02T06:03:04.650Z,92.90
2017-10-02T06:05:32.281Z,92.90
2017-10-02T06:07:59.849Z,92.80
2017-10-02T06:10:27.417Z,92.70
2017-10-02T06:12:55.049Z,92.80
2017-10-02T06:15:23.386Z,93.00
2017-10-02T06:17:50.950Z,92.90
2017-10-02T06:20:19.342Z,92.90
2017-10-02T06:22:46.915Z,92.90
2017-10-02T06:25:14.494Z,93.10
2017-10-02T06:27:42.892Z,93.30
2017-10-02T06:30:10.461Z,93.20
2017-10-02T06:32:38.047Z,93.30
2017-10-02T06:35:06.448Z,93.30
2017-10-02T06:37:34.031Z,93.30
2017-10-02T06:40:01.610Z,93.40
2017-10-02T06:42:30.150Z,93.50
2017-10-02T06:44:57.726Z,93.50
2017-10-02T06:47:25.307Z,93.30
2017-10-02T06:49:52.928Z,93.30
2017-10-02T06:52:20.502Z,93.30
2017-10-02T06:54:48.093Z,93.30
2017-10-02T06:57:16.619Z,93.50
2017-10-02T06:59:44.197Z,93.40
2017-10-02T07:02:12.534Z,93.70
2017-10-02T07:04:40.328Z,93.60
2017-10-02T07:07:07.911Z,93.50
2017-10-02T07:09:35.479Z,93.80
2017-10-02T07:12:03.252Z,93.70
2017-10-02T07:14:31.592Z,93.80
2017-10-02T07:16:59.183Z,93.80
2017-10-02T07:19:26.867Z,93.80
2017-10-02T07:21:54.443Z,93.80
2017-10-02T07:24:22.787Z,94.00
2017-10-02T07:26:50.518Z,93.90
2017-10-02T07:29:18.163Z,94.00
2017-10-02T07:31:45.747Z,94.00
2017-10-02T07:34:14.127Z,94.00
2017-10-02T07:36:41.708Z,94.00
2017-10-02T07:39:09.293Z,94.10
2017-10-02T07:41:37.867Z,94.00
2017-10-02T07:44:06.193Z,94.00
2017-10-02T07:46:33.763Z,94.00
2017-10-02T07:49:02.343Z,94.10
2017-10-02T07:51:29.910Z,94.10
2017-10-02T07:53:57.491Z,94.10
2017-10-02T07:56:25.274Z,94.20
2017-10-02T07:58:53.618Z,94.20
2017-10-02T08:01:21.970Z,94.20
2017-10-02T08:03:49.594Z,94.50
2017-10-02T08:06:17.164Z,94.20
2017-10-02T08:08:45.503Z,94.20
2017-10-02T08:11:13.290Z,94.20
2017-10-02T08:13:41.635Z,94.30
2017-10-02T08:16:09.325Z,94.30
2017-10-02T08:18:37.150Z,94.30
2017-10-02T08:21:05.482Z,94.30
2017-10-02T08:23:33.079Z,94.30
2017-10-02T08:26:00.690Z,94.30
2017-10-02T08:28:29.025Z,94.40
2017-10-02T08:30:56.594Z,94.30
2017-10-02T08:33:25.087Z,94.30
2017-10-02T08:35:52.658Z,94.30
2017-10-02T08:38:20.239Z,94.30
2017-10-02T08:40:47.867Z,94.30
2017-10-02T08:43:15.438Z,94.30
2017-10-02T08:45:43.773Z,94.30
2017-10-02T08:48:11.417Z,94.30
2017-10-02T08:50:38.995Z,94.20
2017-10-02T08:53:07.333Z,94.20
2017-10-02T08:55:34.965Z,94.20
2017-10-02T08:58:02.554Z,94.10
2017-10-02T09:00:30.883Z,94.20
2017-10-02T09:02:58.498Z,94.20
2017-10-02T09:05:26.068Z,94.20
2017-10-02T09:07:53.642Z,94.10
2017-10-02T09:10:22.046Z,94.10
2017-10-02T09:12:49.619Z,94.10
2017-10-02T09:15:17.200Z,94.10
2017-10-02T09:17:44.826Z,94.10
2017-10-02T09:20:12.394Z,94.10
2017-10-02T09:22:39.955Z,94.20
2017-10-02T09:25:07.590Z,94.10
2017-10-02T09:27:35.171Z,94.10
2017-10-02T09:30:02.741Z,93.90
2017-10-02T09:32:30.508Z,93.70
2017-10-02T09:34:58.846Z,93.20
2017-10-02T09:37:26.422Z,93.20
2017-10-02T09:39:54.046Z,93.20
2017-10-02T09:42:22.390Z,93.00
2017-10-02T09:44:49.957Z,92.90
2017-10-02T09:47:18.330Z,92.70
2017-10-02T09:49:46.669Z,92.70
2017-10-02T09:52:14.243Z,92.70
2017-10-02T09:54:41.862Z,93.00
2017-10-02T09:57:10.211Z,92.70
2017-10-02T09:59:37.787Z,92.70
2017-10-02T10:02:06.357Z,92.70
2017-10-02T10:04:33.955Z,92.70
2017-10-02T10:07:01.522Z,92.80
2017-10-02T10:09:29.306Z,92.80
2017-10-02T10:11:56.891Z,92.70
2017-10-02T10:14:24.455Z,92.80
2017-10-02T10:16:52.222Z,92.70
2017-10-02T10:19:20.559Z,92.70
2017-10-02T10:21:48.147Z,92.70
2017-10-02T10:24:15.834Z,92.70
2017-10-02T10:26:43.478Z,92.60
2017-10-02T10:29:11.052Z,92.50
2017-10-02T10:31:39.621Z,92.60
2017-10-02T10:34:08.170Z,92.40
2017-10-02T10:36:35.751Z,92.40
2017-10-02T10:39:03.484Z,92.40
2017-10-02T10:41:31.838Z,92.30
2017-10-02T10:44:00.175Z,92.40
2017-10-02T10:46:27.966Z,92.30
2017-10-02T10:48:56.294Z,92.20
2017-10-02T10:51:23.890Z,92.20
2017-10-02T10:53:51.516Z,91.90
2017-10-02T10:56:19.852Z,91.90
2017-10-02T10:58:47.476Z,91.90
2017-10-02T11:01:15.262Z,91.80
2017-10-02T11:03:43.594Z,91.10
2017-10-02T11:06:11.159Z,91.00
2017-10-02T11:08:38.927Z,90.90
2017-10-02T11:11:07.263Z,90.50
2017-10-02T11:13:34.866Z,90.40
2017-10-02T11:16:02.484Z,90.10
2017-10-02T11:18:30.076Z,89.10
2017-10-02T11:20:57.637Z,89.80
2017-10-02T11:23:25.262Z,90.10
2017-10-02T11:25:52.829Z,90.20
2017-10-02T11:28:20.401Z,90.30
2017-10-02T11:30:48.038Z,90.30
2017-10-02T11:33:16.369Z,90.30
2017-10-02T11:35:43.942Z,90.30
2017-10-02T11:38:12.328Z,90.60
2017-10-02T11:40:39.893Z,90.50
2017-10-02T11:43:07.471Z,90.70
2017-10-02T11:45:35.097Z,90.90
2017-10-02T11:48:02.662Z,91.40
2017-10-02T11:50:30.226Z,91.40
2017-10-02T11:52:58.814Z,91.30
2017-10-02T11:55:26.393Z,91.30
2017-10-02T11:57:53.968Z,91.40
2017-10-02T12:00:22.375Z,92.00
2017-10-02T12:02:49.944Z,92.00
2017-10-02T12:05:17.591Z,92.20
2017-10-02T12:07:45.374Z,92.00
2017-10-02T12:10:13.702Z,91.80
2017-10-02T12:12:41.298Z,91.80
2017-10-02T12:15:08.972Z,91.90
2017-10-02T12:17:39.155Z,91.90
2017-10-02T12:20:07.097Z,91.90
2017-10-02T12:22:35.698Z,91.80
2017-10-02T12:25:04.570Z,91.70
2017-10-02T12:27:32.532Z,91.70
2017-10-02T12:30:01.525Z,91.60
2017-10-02T12:32:30.424Z,91.60
2017-10-02T12:34:59.014Z,91.30
2017-10-02T12:37:27.589Z,91.30
2017-10-02T12:39:55.958Z,90.40
2017-10-02T12:42:24.539Z,90.10
2017-10-02T12:44:53.360Z,88.10
2017-10-02T12:47:22.198Z,86.90
2017-10-02T12:49:49.786Z,86.80
2017-10-02T12:52:18.380Z,86.30
2017-10-02T12:54:46.438Z,86.30
2017-10-02T12:57:15.186Z,85.90
2017-10-02T12:59:44.167Z,84.90
2017-10-02T13:02:12.941Z,85.50
2017-10-02T13:04:41.206Z,85.50
2017-10-02T13:07:10.753Z,83.60
2017-10-02T13:09:39.039Z,81.30
2017-10-02T13:12:08.897Z,80.90
2017-10-02T13:14:37.174Z,80.40
2017-10-02T13:17:05.389Z,80.60
2017-10-02T13:19:33.530Z,80.70
2017-10-02T13:22:01.402Z,80.90
2017-10-02T13:24:29.703Z,81.60
2017-10-02T13:26:57.725Z,81.40
2017-10-02T13:31:53.339Z,81.80
2017-10-02T13:34:21.478Z,81.80
2017-10-02T13:36:49.953Z,82.70
2017-10-02T13:39:19.809Z,81.80
2017-10-02T13:41:47.947Z,81.20
2017-10-02T13:44:16.629Z,80.90
2017-10-02T13:46:45.595Z,81.40
2017-10-02T13:49:14.751Z,81.30
2017-10-02T13:51:43.117Z,80.90
2017-10-02T13:54:10.962Z,80.70
2017-10-02T13:56:38.819Z,80.50
2017-10-02T13:59:06.421Z,80.20
2017-10-02T14:01:34.042Z,79.10
2017-10-02T14:04:01.614Z,79.50
2017-10-02T14:06:29.182Z,79.20
2017-10-02T14:08:56.811Z,79.70
2017-10-02T14:11:25.206Z,80.30
2017-10-02T14:13:52.773Z,80.20
2017-10-02T14:16:21.242Z,80.20
2017-10-02T14:18:48.827Z,80.20
2017-10-02T14:21:16.420Z,81.20
2017-10-02T14:23:44.811Z,80.90
2017-10-02T14:26:12.385Z,80.90
2017-10-02T14:28:39.955Z,80.30
2017-10-02T14:31:08.565Z,80.00
2017-10-02T14:33:36.139Z,80.00
2017-10-02T14:36:03.711Z,79.80
2017-10-02T14:38:31.334Z,79.70
2017-10-02T14:40:58.902Z,79.90
2017-10-02T14:43:27.283Z,79.80
2017-10-02T14:45:55.685Z,79.90
2017-10-02T14:48:23.247Z,79.80
2017-10-02T14:50:50.821Z,80.30
2017-10-02T14:53:19.198Z,79.90
2017-10-02T14:55:47.535Z,79.20
2017-10-02T14:58:15.120Z,79.10
2017-10-02T15:00:46.770Z,79.50
2017-10-02T15:03:14.647Z,79.20
2017-10-02T15:05:42.214Z,79.80
2017-10-02T15:08:10.610Z,81.00
2017-10-02T15:10:38.194Z,80.80
2017-10-02T15:13:05.778Z,80.30
2017-10-02T15:15:34.413Z,80.70
2017-10-02T15:18:02.030Z,80.70
2017-10-02T15:20:29.609Z,80.50
2017-10-02T15:22:57.235Z,80.20
2017-10-02T15:25:24.810Z,81.10
2017-10-02T15:27:52.375Z,80.60
2017-10-02T15:30:20.939Z,80.40
2017-10-02T15:32:49.274Z,80.10
2017-10-02T15:35:17.233Z,80.00
2017-10-02T15:37:44.851Z,80.80
2017-10-02T15:40:12.419Z,79.60
2017-10-02T15:42:39.999Z,79.80
2017-10-02T15:45:07.726Z,80.30
2017-10-02T15:47:36.063Z,79.20
2017-10-02T15:50:03.633Z,79.20
2017-10-02T15:52:32.159Z,79.50
2017-10-02T15:54:59.721Z,79.50
2017-10-02T15:57:27.289Z,79.40
2017-10-02T15:59:55.678Z,80.50
2017-10-02T16:02:23.251Z,80.40
2017-10-02T16:04:50.825Z,80.10
2017-10-02T16:07:18.588Z,80.80
2017-10-02T16:09:47.015Z,81.20
2017-10-02T16:12:14.583Z,81.20
2017-10-02T16:14:42.690Z,81.60
2017-10-02T16:17:10.259Z,81.40
2017-10-02T16:19:37.838Z,80.80
2017-10-02T16:22:06.263Z,82.00
2017-10-02T16:24:33.860Z,81.90
2017-10-02T16:27:01.476Z,81.80
2017-10-02T16:29:29.106Z,81.60
2017-10-02T16:31:56.689Z,80.90
2017-10-02T16:34:25.108Z,81.70
2017-10-02T16:36:53.711Z,82.60
2017-10-02T16:39:22.051Z,81.40
2017-10-02T16:41:49.621Z,81.40
2017-10-02T16:44:18.154Z,81.20
2017-10-02T16:46:45.743Z,81.20
2017-10-02T16:49:13.314Z,80.90
2017-10-02T16:51:40.946Z,81.70
2017-10-02T16:54:08.518Z,81.50
2017-10-02T16:56:36.136Z,80.70
2017-10-02T16:59:04.017Z,80.70
2017-10-02T17:01:31.607Z,80.50
2017-10-02T17:03:59.178Z,80.50
2017-10-02T17:06:26.791Z,80.80
2017-10-02T17:08:55.223Z,80.90
2017-10-02T17:11:22.975Z,80.80
2017-10-02T17:13:51.528Z,81.10
2017-10-02T17:16:19.207Z,81.10
2017-10-02T17:18:47.541Z,81.20
2017-10-02T17:21:15.153Z,81.20
2017-10-02T17:23:42.720Z,81.70
2017-10-02T17:26:10.326Z,82.00
2017-10-02T17:28:40.157Z,82.00
2017-10-02T17:31:07.738Z,82.00
2017-10-02T17:33:36.079Z,82.60
2017-10-02T17:36:03.694Z,82.60
2017-10-02T17:38:31.270Z,82.80
2017-10-02T17:40:58.904Z,82.50
2017-10-02T17:43:26.538Z,82.70
2017-10-02T17:45:54.113Z,82.80
2017-10-02T17:48:22.554Z,83.30
2017-10-02T17:50:50.274Z,83.40
2017-10-02T17:53:17.837Z,82.90
2017-10-02T17:55:47.099Z,83.20
2017-10-02T17:58:14.991Z,83.10
2017-10-02T18:00:43.447Z,82.70
2017-10-02T18:03:11.029Z,82.80
2017-10-02T18:05:39.679Z,82.40
2017-10-02T18:08:07.374Z,82.40
2017-10-02T18:10:34.981Z,82.30
2017-10-02T18:13:03.461Z,82.10
2017-10-02T18:15:31.029Z,82.10
2017-10-02T18:17:58.648Z,82.40
2017-10-02T18:20:27.141Z,82.50
2017-10-02T18:22:54.731Z,82.40
2017-10-02T18:25:22.303Z,82.50
2017-10-02T18:27:50.690Z,83.70
2017-10-02T18:30:19.314Z,83.70
2017-10-02T18:32:46.936Z,83.30
2017-10-02T18:35:14.597Z,83.30
2017-10-02T18:37:42.170Z,83.40
2017-10-02T18:40:10.074Z,83.40
2017-10-02T18:42:37.701Z,83.40
2017-10-02T18:45:06.749Z,83.40
2017-10-02T18:47:34.329Z,83.40
2017-10-02T18:50:02.329Z,83.60
2017-10-02T18:52:30.702Z,83.80
2017-10-02T18:54:59.223Z,84.10
2017-10-02T18:57:27.802Z,84.10
2017-10-02T18:59:55.365Z,84.10
2017-10-02T19:02:24.308Z,84.00
2017-10-02T19:04:51.930Z,83.90
2017-10-02T19:07:20.521Z,84.10
2017-10-02T19:09:49.114Z,84.30
2017-10-02T19:12:17.515Z,84.40
2017-10-02T19:14:45.342Z,84.40
2017-10-02T19:17:13.670Z,84.30
2017-10-02T19:19:41.770Z,84.30
2017-10-02T19:22:09.362Z,84.40
2017-10-02T19:24:36.936Z,84.70
2017-10-02T19:27:05.271Z,84.70
2017-10-02T19:29:32.884Z,85.30
2017-10-02T19:32:01.196Z,85.20
2017-10-02T19:34:30.037Z,85.10
2017-10-02T19:37:10.665Z,85.30
2017-10-02T19:39:41.116Z,85.30
2017-10-02T19:42:10.359Z,85.00
2017-10-02T19:44:38.218Z,85.00
2017-10-02T19:47:06.203Z,85.00
2017-10-02T19:49:33.775Z,84.90
2017-10-02T19:52:02.500Z,85.60
2017-10-02T19:54:31.139Z,85.80
2017-10-02T19:56:58.863Z,85.70
2017-10-02T19:59:27.230Z,86.40
2017-10-02T20:01:55.626Z,86.50
2017-10-02T20:04:23.324Z,86.50
2017-10-02T20:06:51.893Z,86.80
2017-10-02T20:09:20.656Z,86.80
2017-10-02T20:11:49.714Z,86.20
2017-10-02T20:16:56.880Z,86.00
2017-10-02T20:19:27.264Z,85.80
2017-10-02T20:21:56.179Z,85.30
2017-10-02T20:24:25.243Z,85.30
2017-10-02T20:26:53.808Z,85.30
2017-10-02T20:29:22.338Z,85.10
2017-10-02T20:31:49.916Z,85.10
2017-10-02T20:34:17.482Z,85.30
2017-10-02T20:36:45.095Z,85.50
2017-10-02T20:39:12.664Z,85.70
2017-10-02T20:41:40.246Z,85.60
2017-10-02T20:44:08.638Z,85.80
2017-10-02T20:46:36.230Z,85.70
2017-10-02T20:49:04.575Z,86.00
2017-10-02T20:51:32.214Z,86.00
2017-10-02T20:53:59.803Z,85.90
2017-10-02T20:56:27.381Z,86.30
2017-10-02T20:58:55.146Z,86.50
2017-10-02T21:01:22.722Z,86.80
2017-10-02T21:03:51.076Z,87.30
2017-10-02T21:06:19.654Z,87.30
2017-10-02T21:08:47.990Z,87.50
2017-10-02T21:11:15.571Z,87.40
2017-10-02T21:13:43.203Z,87.60
2017-10-02T21:16:11.543Z,88.00
2017-10-02T21:18:39.115Z,88.00
2017-10-02T21:21:07.494Z,88.30
2017-10-02T21:23:35.081Z,88.30
2017-10-02T21:26:02.654Z,88.70
2017-10-02T21:28:31.042Z,88.90
2017-10-02T21:30:58.611Z,88.80
2017-10-02T21:33:26.186Z,89.00
2017-10-02T21:35:53.913Z,89.10
2017-10-02T21:38:21.491Z,89.20
2017-10-02T21:40:49.834Z,89.40
2017-10-02T21:43:17.451Z,89.40
2017-10-02T21:45:45.034Z,89.60
2017-10-02T21:48:12.609Z,90.00
2017-10-02T21:50:40.222Z,90.00
2017-10-02T21:53:07.795Z,90.00
2017-10-02T21:55:35.367Z,90.10
2017-10-02T21:58:03.098Z,90.10
2017-10-02T22:00:30.673Z,90.10
2017-10-02T22:02:58.325Z,90.00
2017-10-02T22:05:25.946Z,90.00
2017-10-02T22:07:53.620Z,90.10
2017-10-02T22:10:21.190Z,90.10
2017-10-02T22:12:49.682Z,90.10
2017-10-02T22:15:17.254Z,90.10
2017-10-02T22:17:44.829Z,90.00
2017-10-02T22:20:12.478Z,90.00
2017-10-02T22:22:40.142Z,90.00
2017-10-02T22:25:08.489Z,90.10
2017-10-02T22:27:36.117Z,90.00
2017-10-02T22:30:03.702Z,90.10
2017-10-02T22:32:31.286Z,90.10
2017-10-02T22:34:59.095Z,90.10
2017-10-02T22:37:26.688Z,90.10
2017-10-02T22:39:54.262Z,90.00
2017-10-02T22:42:22.659Z,89.70
2017-10-02T22:44:50.229Z,89.60
2017-10-02T22:47:17.802Z,89.70
2017-10-02T22:49:45.426Z,89.30
2017-10-02T22:52:12.998Z,89.80
2017-10-02T22:54:41.341Z,89.60
2017-10-02T22:57:08.957Z,90.00
2017-10-02T22:59:36.536Z,90.20
2017-10-02T23:02:04.119Z,90.20
2017-10-02T23:04:31.855Z,90.30
2017-10-02T23:07:00.196Z,90.50
2017-10-02T23:09:27.780Z,90.50
2017-10-02T23:11:55.609Z,90.50
2017-10-02T23:14:24.040Z,90.30
2017-10-02T23:16:51.621Z,90.30
2017-10-02T23:19:20.150Z,90.30
2017-10-02T23:21:47.727Z,90.30
2017-10-02T23:24:16.078Z,90.10
2017-10-02T23:26:44.471Z,90.10
2017-10-02T23:29:12.048Z,90.10
2017-10-02T23:31:39.643Z,90.20
2017-10-02T23:34:08.035Z,90.20
2017-10-02T23:36:35.619Z,90.10
2017-10-02T23:39:03.200Z,90.10
2017-10-02T23:41:30.925Z,90.10
2017-10-02T23:43:58.494Z,90.10
2017-10-02T23:46:26.074Z,90.10
2017-10-02T23:48:53.700Z,90.20
2017-10-02T23:51:21.277Z,90.20
2017-10-02T23:53:48.856Z,90.30
2017-10-02T23:56:17.346Z,90.30
2017-10-02T23:58:44.922Z,90.30
